Time;durP1;ratioP1;P1;durP2;ratioP2;P2;SDS_P1;SDS_P2;PMS_P1;PMS_P2;Temp;Humidity;BMP_temperature;BMP_pressure;BME280_temperature;BME280_humidity;BME280_pressure;Samples;Min_cycle;Max_cycle;Signal;HPM_P1;HPM_P2
2023/07/24 00:00:14;;;;;;;;;;;20.60;85.30;;;;;;4187357;28;19932;-48
2023/07/24 00:02:56;;;;;;;;;;;20.60;84.40;;;;;;4171428;28;19936;-48
2023/07/24 00:05:37;;;;;;;;;;;20.60;84.50;;;;;;4158670;28;19937;-46
2023/07/24 00:08:18;;;;;;;;;;;20.60;84.40;;;;;;4155535;28;20014;-47
2023/07/24 00:10:59;;;;;;;;;;;20.60;84.50;;;;;;4188034;28;19935;-51
2023/07/24 00:13:39;;;;;;;;;;;20.60;84.60;;;;;;4177587;28;20054;-47
2023/07/24 00:16:20;;;;;;;;;;;20.60;84.60;;;;;;4170760;28;19944;-47
2023/07/24 00:19:02;;;;;;;;;;;20.60;84.70;;;;;;4156316;28;20404;-48
2023/07/24 00:21:43;;;;;;;;;;;20.60;84.80;;;;;;4154651;28;20075;-47
2023/07/24 00:24:23;;;;;;;;;;;20.60;84.70;;;;;;4170392;28;19932;-48
2023/07/24 00:27:04;;;;;;;;;;;20.50;84.70;;;;;;4154990;28;19932;-47
2023/07/24 00:29:45;;;;;;;;;;;20.50;84.80;;;;;;4170585;28;19936;-48
2023/07/24 00:32:26;;;;;;;;;;;20.50;84.90;;;;;;4170692;28;19935;-50
2023/07/24 00:35:10;;;;;;;;;;;20.50;84.90;;;;;;4167623;28;19932;-49
2023/07/24 00:37:50;;;;;;;;;;;20.60;85.00;;;;;;4171030;28;19932;-48
2023/07/24 00:40:31;;;;;;;;;;;20.50;85.00;;;;;;4170441;28;20275;-50
2023/07/24 00:43:12;;;;;;;;;;;20.50;85.00;;;;;;4169889;28;19939;-48
2023/07/24 00:45:52;;;;;;;;;;;20.50;85.00;;;;;;4151852;28;19932;-47
2023/07/24 00:48:34;;;;;;;;;;;20.50;85.10;;;;;;4169126;28;19954;-47
2023/07/24 00:51:16;;;;;;;;;;;20.50;86.00;;;;;;4169765;28;19939;-48
2023/07/24 00:53:57;;;;;;;;;;;20.50;85.10;;;;;;4185763;28;19940;-47
2023/07/24 00:56:38;;;;;;;;;;;20.50;85.10;;;;;;4170193;28;19932;-48
2023/07/24 00:59:19;;;;;;;;;;;20.50;86.10;;;;;;4169045;28;19936;-48
2023/07/24 01:02:00;;;;;;;;;;;20.50;85.20;;;;;;4170636;28;19936;-50
2023/07/24 01:04:40;;;;;;;;;;;20.50;85.20;;;;;;4168619;28;20383;-47
2023/07/24 01:07:23;;;;;;;;;;;20.50;85.30;;;;;;4159099;28;19974;-47
2023/07/24 01:10:03;;;;;;;;;;;20.50;85.30;;;;;;4147252;28;20021;-50
2023/07/24 01:12:47;;;;;;;;;;;20.50;85.40;;;;;;4177172;28;20394;-47
2023/07/24 01:15:31;;;;;;;;;;;20.50;85.40;;;;;;4175195;28;19934;-50
2023/07/24 01:18:13;;;;;;;;;;;20.50;85.40;;;;;;4135131;28;19994;-49
2023/07/24 01:20:56;;;;;;;;;;;20.50;85.50;;;;;;4146620;28;20360;-50
2023/07/24 01:23:45;;;;;;;;;;;20.50;85.60;;;;;;4172375;28;19931;-50
2023/07/24 01:26:27;;;;;;;;;;;20.50;85.60;;;;;;4159377;28;20023;-52
2023/07/24 01:29:08;;;;;;;;;;;20.50;85.60;;;;;;4189564;28;19936;-49
2023/07/24 01:31:49;;;;;;;;;;;20.50;85.60;;;;;;4189838;28;19974;-51
2023/07/24 01:34:30;;;;;;;;;;;20.40;85.60;;;;;;4189297;28;19977;-51
2023/07/24 01:37:12;;;;;;;;;;;20.40;85.60;;;;;;4167548;28;20392;-52
2023/07/24 01:39:54;;;;;;;;;;;20.50;85.80;;;;;;4172895;28;19932;-51
2023/07/24 01:42:36;;;;;;;;;;;20.40;85.70;;;;;;4178530;28;20390;-48
2023/07/24 01:45:17;;;;;;;;;;;20.40;85.80;;;;;;4164761;28;19962;-48
2023/07/24 01:47:57;;;;;;;;;;;20.50;85.90;;;;;;4156637;28;19936;-48
2023/07/24 01:50:40;;;;;;;;;;;20.50;85.90;;;;;;4158039;28;19936;-48
2023/07/24 01:53:21;;;;;;;;;;;20.50;85.90;;;;;;4162882;28;19931;-49
2023/07/24 01:56:01;;;;;;;;;;;20.40;85.90;;;;;;4167059;28;20256;-48
2023/07/24 01:58:44;;;;;;;;;;;20.40;86.00;;;;;;4176593;28;19985;-49
2023/07/24 02:01:24;;;;;;;;;;;20.40;85.90;;;;;;4176905;28;19947;-47
2023/07/24 02:04:05;;;;;;;;;;;20.40;86.00;;;;;;4173017;28;20337;-48
2023/07/24 02:06:46;;;;;;;;;;;20.40;86.00;;;;;;4172131;28;20403;-50
2023/07/24 02:09:27;;;;;;;;;;;20.40;86.00;;;;;;4160394;28;19973;-48
2023/07/24 02:12:08;;;;;;;;;;;20.40;86.00;;;;;;4149400;28;19932;-51
2023/07/24 02:14:51;;;;;;;;;;;20.40;86.10;;;;;;4143270;28;19936;-48
2023/07/24 02:17:33;;;;;;;;;;;20.40;86.20;;;;;;4158888;28;19987;-47
2023/07/24 02:20:14;;;;;;;;;;;20.40;86.10;;;;;;4172184;28;19935;-49
2023/07/24 02:22:56;;;;;;;;;;;20.40;87.00;;;;;;4170532;28;19986;-48
2023/07/24 02:25:37;;;;;;;;;;;20.40;86.20;;;;;;4155958;28;19936;-52
2023/07/24 02:28:18;;;;;;;;;;;20.40;86.20;;;;;;4145076;28;19991;-49
2023/07/24 02:31:00;;;;;;;;;;;20.40;86.20;;;;;;4158293;28;19935;-48
2023/07/24 02:33:42;;;;;;;;;;;20.40;86.30;;;;;;4170493;28;19939;-51
2023/07/24 02:36:23;;;;;;;;;;;20.40;86.40;;;;;;4160377;28;19932;-51
2023/07/24 02:39:04;;;;;;;;;;;20.40;86.40;;;;;;4172167;28;19936;-52
2023/07/24 02:41:46;;;;;;;;;;;20.40;86.50;;;;;;4159690;28;20058;-49
2023/07/24 02:44:26;;;;;;;;;;;20.40;86.50;;;;;;4175681;28;19935;-50
2023/07/24 02:47:09;;;;;;;;;;;20.40;86.50;;;;;;4189322;28;19951;-53
2023/07/24 02:49:51;;;;;;;;;;;20.40;86.60;;;;;;4188585;28;19931;-51
2023/07/24 02:52:31;;;;;;;;;;;20.40;86.60;;;;;;4188497;28;19931;-52
2023/07/24 02:55:12;;;;;;;;;;;20.40;87.50;;;;;;4171515;28;19936;-52
2023/07/24 02:57:54;;;;;;;;;;;20.40;86.70;;;;;;4176291;28;20002;-52
2023/07/24 03:00:34;;;;;;;;;;;20.40;86.70;;;;;;4187785;28;19935;-53
2023/07/24 03:03:16;;;;;;;;;;;20.40;87.60;;;;;;4143125;28;19964;-51
2023/07/24 03:05:57;;;;;;;;;;;20.40;86.70;;;;;;4155626;28;19994;-52
2023/07/24 03:08:38;;;;;;;;;;;20.40;86.80;;;;;;4140663;28;20059;-51
2023/07/24 03:11:18;;;;;;;;;;;20.40;86.90;;;;;;4145245;28;19936;-47
2023/07/24 03:14:00;;;;;;;;;;;20.40;86.90;;;;;;4141710;28;20380;-47
2023/07/24 03:16:40;;;;;;;;;;;20.40;86.90;;;;;;4155922;28;20415;-46
2023/07/24 03:19:22;;;;;;;;;;;20.30;86.90;;;;;;4154226;28;20295;-47
2023/07/24 03:22:04;;;;;;;;;;;20.40;87.00;;;;;;4153224;28;19936;-50
2023/07/24 03:24:45;;;;;;;;;;;20.40;86.90;;;;;;4170926;28;19936;-47
2023/07/24 03:27:25;;;;;;;;;;;20.40;87.00;;;;;;4181899;28;19935;-50
2023/07/24 03:30:07;;;;;;;;;;;20.40;86.90;;;;;;4168827;28;19932;-51
2023/07/24 03:32:48;;;;;;;;;;;20.30;87.00;;;;;;4170028;28;19931;-50
2023/07/24 03:35:31;;;;;;;;;;;20.30;87.00;;;;;;4159330;28;19936;-48
2023/07/24 03:38:12;;;;;;;;;;;20.30;87.10;;;;;;4176303;28;19935;-48
2023/07/24 03:40:53;;;;;;;;;;;20.30;87.10;;;;;;4188042;28;20013;-46
2023/07/24 03:43:33;;;;;;;;;;;20.30;87.10;;;;;;4184125;28;19931;-49
2023/07/24 03:46:14;;;;;;;;;;;20.30;87.10;;;;;;4157665;28;19935;-47
2023/07/24 03:48:55;;;;;;;;;;;20.30;87.10;;;;;;4187831;28;19936;-47
2023/07/24 03:51:37;;;;;;;;;;;20.30;87.10;;;;;;4188357;28;20058;-49
2023/07/24 03:54:18;;;;;;;;;;;20.30;87.20;;;;;;4188204;28;19950;-47
2023/07/24 03:56:58;;;;;;;;;;;20.30;87.30;;;;;;4187816;28;20009;-51
2023/07/24 03:59:39;;;;;;;;;;;20.40;87.30;;;;;;4167765;28;19935;-47
2023/07/24 04:02:20;;;;;;;;;;;20.30;87.30;;;;;;4146005;28;19936;-49
2023/07/24 04:05:01;;;;;;;;;;;20.30;87.30;;;;;;4142749;28;19933;-46
2023/07/24 04:07:44;;;;;;;;;;;20.30;87.30;;;;;;4155078;28;19936;-49
2023/07/24 04:10:25;;;;;;;;;;;20.30;87.30;;;;;;4163422;28;20063;-47
2023/07/24 04:13:06;;;;;;;;;;;20.40;87.40;;;;;;4171680;28;19982;-47
2023/07/24 04:15:46;;;;;;;;;;;20.30;87.30;;;;;;4171094;28;19932;-50
2023/07/24 04:18:27;;;;;;;;;;;20.30;87.40;;;;;;4171054;28;20066;-49
2023/07/24 04:21:07;;;;;;;;;;;20.30;87.40;;;;;;4187288;28;19931;-47
2023/07/24 04:23:50;;;;;;;;;;;20.30;87.40;;;;;;4188044;28;19935;-47
2023/07/24 04:26:30;;;;;;;;;;;20.30;87.40;;;;;;4188077;28;19936;-46
2023/07/24 04:29:11;;;;;;;;;;;20.30;88.20;;;;;;4160154;28;19936;-47
2023/07/24 04:31:53;;;;;;;;;;;20.30;87.40;;;;;;4171334;28;19970;-46
2023/07/24 04:34:33;;;;;;;;;;;20.30;87.50;;;;;;4152815;28;19932;-47
2023/07/24 04:37:14;;;;;;;;;;;20.40;87.60;;;;;;4167236;28;19931;-47
2023/07/24 04:39:56;;;;;;;;;;;20.30;87.50;;;;;;4187596;28;20291;-48
2023/07/24 04:42:37;;;;;;;;;;;20.30;87.60;;;;;;4187827;28;19934;-48
2023/07/24 04:45:18;;;;;;;;;;;20.30;87.50;;;;;;4187336;28;19940;-48
2023/07/24 04:48:00;;;;;;;;;;;20.30;87.60;;;;;;4169487;28;20374;-49
2023/07/24 04:50:41;;;;;;;;;;;20.30;87.70;;;;;;4158231;28;19999;-43
2023/07/24 04:53:22;;;;;;;;;;;20.30;87.70;;;;;;4169399;28;19932;-46
2023/07/24 04:56:05;;;;;;;;;;;20.30;88.10;;;;;;4169358;28;19932;-46
2023/07/24 04:58:45;;;;;;;;;;;20.40;88.40;;;;;;4170453;28;19982;-50
2023/07/24 05:01:26;;;;;;;;;;;20.30;88.30;;;;;;4164670;28;19995;-49
2023/07/24 05:04:07;;;;;;;;;;;20.40;88.30;;;;;;4170958;28;19952;-50
2023/07/24 05:06:47;;;;;;;;;;;20.40;88.40;;;;;;4155205;28;20091;-47
2023/07/24 05:09:28;;;;;;;;;;;20.40;88.60;;;;;;4170668;28;19932;-48
2023/07/24 05:12:10;;;;;;;;;;;20.40;88.50;;;;;;4170883;28;20030;-50
2023/07/24 05:14:50;;;;;;;;;;;20.30;88.40;;;;;;4170203;28;19936;-49
2023/07/24 05:17:31;;;;;;;;;;;20.30;88.40;;;;;;4157391;28;20395;-47
2023/07/24 05:20:12;;;;;;;;;;;20.30;88.40;;;;;;4169972;28;19931;-47
2023/07/24 05:22:53;;;;;;;;;;;20.30;88.40;;;;;;4169514;28;20058;-50
2023/07/24 05:25:34;;;;;;;;;;;20.30;88.40;;;;;;4170878;28;19932;-46
2023/07/24 05:28:16;;;;;;;;;;;20.30;88.40;;;;;;4169366;28;19932;-46
2023/07/24 05:30:57;;;;;;;;;;;20.30;88.40;;;;;;4170732;28;19935;-48
2023/07/24 05:33:38;;;;;;;;;;;20.30;88.40;;;;;;4157128;28;19932;-49
2023/07/24 05:36:18;;;;;;;;;;;20.30;88.50;;;;;;4155263;28;19932;-52
2023/07/24 05:38:59;;;;;;;;;;;20.30;88.60;;;;;;4157272;28;20071;-47
2023/07/24 05:41:40;;;;;;;;;;;20.30;88.60;;;;;;4162847;28;20294;-48
2023/07/24 05:44:22;;;;;;;;;;;20.30;88.60;;;;;;4174459;28;19935;-48
2023/07/24 05:47:03;;;;;;;;;;;20.30;89.40;;;;;;4196152;28;19932;-47
2023/07/24 05:49:43;;;;;;;;;;;20.30;88.70;;;;;;4185903;28;19951;-46
2023/07/24 05:52:24;;;;;;;;;;;20.30;88.70;;;;;;4173804;28;20386;-46
2023/07/24 05:55:05;;;;;;;;;;;20.30;88.70;;;;;;4186857;28;20379;-47
2023/07/24 05:57:46;;;;;;;;;;;20.30;88.80;;;;;;4172117;28;19981;-48
2023/07/24 06:00:28;;;;;;;;;;;20.30;88.80;;;;;;4173070;28;20604;-47
2023/07/24 06:03:08;;;;;;;;;;;20.30;89.00;;;;;;4171945;28;19943;-49
2023/07/24 06:05:53;;;;;;;;;;;20.30;88.90;;;;;;4171517;28;19935;-50
2023/07/24 06:08:34;;;;;;;;;;;20.30;88.80;;;;;;4172568;28;20433;-49
2023/07/24 06:11:15;;;;;;;;;;;20.30;89.70;;;;;;4172901;28;19936;-49
2023/07/24 06:13:55;;;;;;;;;;;20.40;89.00;;;;;;4169459;28;19948;-50
2023/07/24 06:16:37;;;;;;;;;;;20.40;89.20;;;;;;4152618;28;19983;-49
2023/07/24 06:19:18;;;;;;;;;;;20.40;89.10;;;;;;4172111;28;20380;-49
2023/07/24 06:21:59;;;;;;;;;;;20.40;89.10;;;;;;4174269;28;19936;-50
2023/07/24 06:24:39;;;;;;;;;;;20.40;88.90;;;;;;4156651;28;19932;-48
2023/07/24 06:27:20;;;;;;;;;;;20.40;88.90;;;;;;4163823;28;19935;-49
2023/07/24 06:30:01;;;;;;;;;;;20.40;88.90;;;;;;4160526;28;19936;-48
2023/07/24 06:32:55;;;;;;;;;;;20.40;88.80;;;;;;4147179;28;19974;-48
2023/07/24 06:35:36;;;;;;;;;;;20.40;88.80;;;;;;4172741;28;19936;-48
2023/07/24 06:38:16;;;;;;;;;;;20.40;88.80;;;;;;4172824;28;20055;-47
2023/07/24 06:40:57;;;;;;;;;;;20.40;88.80;;;;;;4172841;28;19942;-48
2023/07/24 06:43:38;;;;;;;;;;;20.40;88.70;;;;;;4156161;28;20443;-46
2023/07/24 06:46:18;;;;;;;;;;;20.40;88.70;;;;;;4156839;28;19936;-47
2023/07/24 06:49:00;;;;;;;;;;;20.40;88.70;;;;;;4156677;28;19936;-47
2023/07/24 06:51:41;;;;;;;;;;;20.40;88.70;;;;;;4160278;28;20295;-47
2023/07/24 06:54:22;;;;;;;;;;;20.40;88.70;;;;;;4189935;28;20013;-50
2023/07/24 06:57:03;;;;;;;;;;;20.40;88.70;;;;;;4189195;28;19931;-48
2023/07/24 06:59:44;;;;;;;;;;;20.40;89.60;;;;;;4189314;28;19947;-48
2023/07/24 07:02:24;;;;;;;;;;;20.40;88.70;;;;;;4173320;28;19936;-50
2023/07/24 07:05:06;;;;;;;;;;;20.40;88.70;;;;;;4172595;28;19932;-48
2023/07/24 07:07:47;;;;;;;;;;;20.40;89.50;;;;;;4172377;28;19935;-51
2023/07/24 07:10:28;;;;;;;;;;;20.40;88.70;;;;;;4170580;28;19967;-48
2023/07/24 07:13:09;;;;;;;;;;;20.40;88.80;;;;;;4158902;28;19932;-48
2023/07/24 07:15:49;;;;;;;;;;;20.40;89.60;;;;;;4172941;28;20022;-50
2023/07/24 07:18:30;;;;;;;;;;;20.40;88.90;;;;;;4156020;28;20067;-48
2023/07/24 07:21:12;;;;;;;;;;;20.40;88.90;;;;;;4126950;28;20391;-48
2023/07/24 07:23:53;;;;;;;;;;;20.40;88.90;;;;;;4135987;28;19947;-48
2023/07/24 07:26:34;;;;;;;;;;;20.50;88.90;;;;;;4156301;28;20293;-50
2023/07/24 07:29:15;;;;;;;;;;;20.40;88.90;;;;;;4155659;28;19936;-51
2023/07/24 07:31:55;;;;;;;;;;;20.40;88.90;;;;;;4172301;28;20453;-48
2023/07/24 07:34:38;;;;;;;;;;;20.40;88.90;;;;;;4171770;28;19935;-46
2023/07/24 07:37:20;;;;;;;;;;;20.50;89.00;;;;;;4172066;28;19931;-50
2023/07/24 07:40:01;;;;;;;;;;;20.40;88.90;;;;;;4171525;28;19936;-51
2023/07/24 07:42:42;;;;;;;;;;;20.40;89.00;;;;;;4161036;28;20063;-48
2023/07/24 07:45:24;;;;;;;;;;;20.40;89.00;;;;;;4171706;28;20299;-52
2023/07/24 07:48:06;;;;;;;;;;;20.50;89.20;;;;;;4171552;28;20315;-48
2023/07/24 07:50:50;;;;;;;;;;;20.50;90.00;;;;;;4171272;28;19955;-49
2023/07/24 07:53:33;;;;;;;;;;;20.50;89.20;;;;;;4171759;28;20090;-50
2023/07/24 07:56:13;;;;;;;;;;;20.50;89.20;;;;;;4171529;28;19977;-49
2023/07/24 07:58:54;;;;;;;;;;;20.50;89.30;;;;;;4171934;28;19932;-48
2023/07/24 08:01:36;;;;;;;;;;;20.50;89.30;;;;;;4170557;28;20424;-50
2023/07/24 08:04:18;;;;;;;;;;;20.50;89.30;;;;;;4172511;28;20737;-48
2023/07/24 08:06:59;;;;;;;;;;;20.50;89.30;;;;;;4160937;28;19932;-52
2023/07/24 08:09:40;;;;;;;;;;;20.50;89.40;;;;;;4142815;28;19952;-46
2023/07/24 08:12:21;;;;;;;;;;;20.60;90.20;;;;;;4155139;28;19932;-47
2023/07/24 08:15:02;;;;;;;;;;;20.60;89.70;;;;;;4169003;28;19978;-50
2023/07/24 08:17:43;;;;;;;;;;;20.60;89.60;;;;;;4155488;28;19932;-46
2023/07/24 08:20:24;;;;;;;;;;;20.60;89.40;;;;;;4168351;28;19947;-48
2023/07/24 08:23:04;;;;;;;;;;;20.60;89.30;;;;;;4171336;28;19935;-48
2023/07/24 08:25:53;;;;;;;;;;;20.70;89.40;;;;;;4159459;28;19935;-46
2023/07/24 08:28:35;;;;;;;;;;;20.70;89.30;;;;;;4171404;28;19983;-48
2023/07/24 08:31:15;;;;;;;;;;;20.70;89.30;;;;;;4153944;28;19932;-47
2023/07/24 08:33:56;;;;;;;;;;;20.70;89.30;;;;;;4181198;28;19959;-47
2023/07/24 08:36:37;;;;;;;;;;;20.70;89.30;;;;;;4154065;28;19988;-47
2023/07/24 08:39:18;;;;;;;;;;;20.70;89.30;;;;;;4166931;28;19931;-47
2023/07/24 08:42:00;;;;;;;;;;;20.70;89.20;;;;;;4170591;28;19977;-48
2023/07/24 08:44:42;;;;;;;;;;;20.70;89.20;;;;;;4154260;28;20288;-47
2023/07/24 08:47:24;;;;;;;;;;;20.70;89.10;;;;;;4163243;28;19936;-48
2023/07/24 08:50:06;;;;;;;;;;;20.70;89.00;;;;;;4166112;28;19935;-50
2023/07/24 08:52:46;;;;;;;;;;;20.70;89.00;;;;;;4151899;28;20014;-47
2023/07/24 08:55:27;;;;;;;;;;;20.70;89.00;;;;;;4167792;28;19935;-50
2023/07/24 08:58:09;;;;;;;;;;;20.80;89.00;;;;;;4187825;28;19978;-48
2023/07/24 09:00:51;;;;;;;;;;;20.80;88.90;;;;;;4187548;28;20037;-47
2023/07/24 09:03:32;;;;;;;;;;;20.80;88.80;;;;;;4174662;28;20098;-49
2023/07/24 09:06:13;;;;;;;;;;;20.80;88.80;;;;;;4154492;28;19999;-46
2023/07/24 09:08:54;;;;;;;;;;;20.80;88.80;;;;;;4154225;28;19948;-48
2023/07/24 09:11:46;;;;;;;;;;;20.80;88.70;;;;;;4154598;28;19967;-48
2023/07/24 09:14:28;;;;;;;;;;;20.80;88.70;;;;;;4153588;28;24788;-48
2023/07/24 09:17:12;;;;;;;;;;;20.80;88.70;;;;;;4153704;28;19936;-48
2023/07/24 09:19:56;;;;;;;;;;;20.80;88.60;;;;;;4152440;28;20022;-47
2023/07/24 09:22:37;;;;;;;;;;;20.80;88.60;;;;;;4159268;28;20399;-47
2023/07/24 09:25:30;;;;;;;;;;;20.80;88.50;;;;;;4155600;28;19936;-49
2023/07/24 09:28:11;;;;;;;;;;;20.80;88.50;;;;;;4168789;28;19940;-50
2023/07/24 09:30:54;;;;;;;;;;;20.80;88.60;;;;;;4163508;28;19936;-48
2023/07/24 09:33:37;;;;;;;;;;;20.80;88.50;;;;;;4189661;28;19974;-46
2023/07/24 09:36:17;;;;;;;;;;;20.90;88.50;;;;;;4161400;28;20014;-47
2023/07/24 09:39:01;;;;;;;;;;;20.90;88.50;;;;;;4189683;28;19935;-48
2023/07/24 09:41:42;;;;;;;;;;;20.90;88.40;;;;;;4189694;28;19939;-49
2023/07/24 09:44:27;;;;;;;;;;;20.90;88.40;;;;;;4146760;28;20492;-46
2023/07/24 09:47:09;;;;;;;;;;;20.90;88.50;;;;;;4183118;28;19936;-46
2023/07/24 09:50:10;;;;;;;;;;;20.90;88.40;;;;;;4170738;28;19932;-52
2023/07/24 09:52:51;;;;;;;;;;;21.00;88.40;;;;;;4172879;28;20370;-50
2023/07/24 09:55:35;;;;;;;;;;;21.00;88.40;;;;;;4172598;28;20080;-46
2023/07/24 09:58:16;;;;;;;;;;;21.00;88.20;;;;;;4155891;28;20390;-49
2023/07/24 10:00:58;;;;;;;;;;;21.00;88.20;;;;;;4158398;28;19983;-46
2023/07/24 10:03:41;;;;;;;;;;;21.00;88.10;;;;;;4170816;28;19940;-49
2023/07/24 10:06:23;;;;;;;;;;;21.00;88.00;;;;;;4160689;28;20082;-46
2023/07/24 10:09:04;;;;;;;;;;;21.10;87.90;;;;;;4154840;28;20371;-47
2023/07/24 10:11:45;;;;;;;;;;;21.10;87.80;;;;;;4149157;28;20045;-48
2023/07/24 10:14:27;;;;;;;;;;;21.20;87.80;;;;;;4170876;28;20005;-48
2023/07/24 10:17:07;;;;;;;;;;;21.30;87.60;;;;;;4170730;28;19935;-48
2023/07/24 10:19:49;;;;;;;;;;;21.30;87.40;;;;;;4171136;28;20296;-48
2023/07/24 10:22:30;;;;;;;;;;;21.40;88.20;;;;;;4168676;28;19935;-47
2023/07/24 10:25:11;;;;;;;;;;;21.40;87.10;;;;;;4170594;28;20383;-52
2023/07/24 10:27:54;;;;;;;;;;;21.50;88.00;;;;;;4159352;28;19932;-50
2023/07/24 10:30:35;;;;;;;;;;;21.50;86.90;;;;;;4154602;28;19982;-51
2023/07/24 10:33:19;;;;;;;;;;;21.50;86.80;;;;;;4170183;28;19931;-51
2023/07/24 10:36:09;;;;;;;;;;;21.50;86.80;;;;;;4163197;28;20090;-49
2023/07/24 10:38:53;;;;;;;;;;;21.50;86.60;;;;;;4167709;28;19935;-52
2023/07/24 10:41:38;;;;;;;;;;;21.50;86.50;;;;;;4153745;28;19935;-52
2023/07/24 10:44:19;;;;;;;;;;;21.60;86.50;;;;;;4168091;28;19947;-50
2023/07/24 10:47:00;;;;;;;;;;;21.60;86.30;;;;;;4169193;28;19984;-49
2023/07/24 10:49:43;;;;;;;;;;;21.60;86.20;;;;;;4169834;28;19935;-48
2023/07/24 10:52:30;;;;;;;;;;;21.60;86.00;;;;;;4155207;28;20149;-47
2023/07/24 10:55:11;;;;;;;;;;;21.60;85.80;;;;;;4169204;28;19978;-50
2023/07/24 10:57:53;;;;;;;;;;;21.70;85.70;;;;;;4169747;28;19936;-48
2023/07/24 11:00:35;;;;;;;;;;;21.70;85.60;;;;;;4157671;28;19936;-49
2023/07/24 11:03:16;;;;;;;;;;;21.80;85.40;;;;;;4156030;28;19943;-47
2023/07/24 11:05:57;;;;;;;;;;;21.80;85.10;;;;;;4166550;28;19935;-47
2023/07/24 11:08:40;;;;;;;;;;;21.90;85.00;;;;;;4169630;28;19939;-47
2023/07/24 11:11:21;;;;;;;;;;;21.90;84.90;;;;;;4179051;28;19947;-52
2023/07/24 11:14:02;;;;;;;;;;;22.00;84.70;;;;;;4164007;28;20055;-51
2023/07/24 11:16:48;;;;;;;;;;;22.00;84.50;;;;;;4153009;28;20387;-48
2023/07/24 11:19:29;;;;;;;;;;;22.00;84.40;;;;;;4153648;28;19932;-47
2023/07/24 11:22:11;;;;;;;;;;;22.10;84.20;;;;;;4170085;28;19939;-47
2023/07/24 11:24:53;;;;;;;;;;;22.10;84.10;;;;;;4142334;28;19940;-50
2023/07/24 11:27:38;;;;;;;;;;;22.10;84.00;;;;;;4165153;28;19958;-48
2023/07/24 11:30:20;;;;;;;;;;;22.10;84.00;;;;;;4166054;28;20071;-49
2023/07/24 11:33:01;;;;;;;;;;;22.20;84.30;;;;;;4169039;28;19944;-48
2023/07/24 11:35:42;;;;;;;;;;;22.20;84.60;;;;;;4169449;28;20031;-48
2023/07/24 11:38:24;;;;;;;;;;;22.20;84.90;;;;;;4154600;28;19936;-47
2023/07/24 11:41:06;;;;;;;;;;;22.20;85.50;;;;;;4169451;28;19936;-48
2023/07/24 11:43:47;;;;;;;;;;;22.20;85.70;;;;;;4160118;28;20071;-49
2023/07/24 11:46:31;;;;;;;;;;;22.20;85.70;;;;;;4156932;28;20517;-48
2023/07/24 11:49:15;;;;;;;;;;;22.20;85.80;;;;;;4153917;28;19933;-51
2023/07/24 11:52:00;;;;;;;;;;;22.20;86.50;;;;;;4163433;28;19936;-50
2023/07/24 11:54:40;;;;;;;;;;;22.20;85.40;;;;;;4152115;28;19977;-49
2023/07/24 11:57:23;;;;;;;;;;;22.20;85.30;;;;;;4168766;28;20117;-51
2023/07/24 12:00:05;;;;;;;;;;;22.20;85.20;;;;;;4167252;28;19951;-50
2023/07/24 12:02:47;;;;;;;;;;;22.30;85.10;;;;;;4168761;28;20063;-47
2023/07/24 12:05:28;;;;;;;;;;;22.20;84.80;;;;;;4168808;28;20078;-49
2023/07/24 12:08:09;;;;;;;;;;;22.20;84.80;;;;;;4150889;28;19971;-48
2023/07/24 12:10:50;;;;;;;;;;;22.20;84.60;;;;;;4168903;28;20394;-47
2023/07/24 12:13:32;;;;;;;;;;;22.20;84.70;;;;;;4153188;28;20509;-50
2023/07/24 12:16:13;;;;;;;;;;;22.20;84.90;;;;;;4156283;28;19975;-52
2023/07/24 12:18:54;;;;;;;;;;;22.20;84.80;;;;;;4168835;28;19932;-47
2023/07/24 12:21:35;;;;;;;;;;;22.20;85.70;;;;;;4168899;28;19932;-48
2023/07/24 12:24:15;;;;;;;;;;;22.20;84.90;;;;;;4149329;28;19952;-51
2023/07/24 12:26:56;;;;;;;;;;;22.20;85.70;;;;;;4149767;28;20035;-47
2023/07/24 12:29:38;;;;;;;;;;;22.20;84.70;;;;;;4167229;28;19978;-48
2023/07/24 12:32:20;;;;;;;;;;;22.20;84.70;;;;;;4168490;28;19935;-48
2023/07/24 12:35:00;;;;;;;;;;;22.20;84.80;;;;;;4167606;28;20054;-47
2023/07/24 12:37:41;;;;;;;;;;;22.20;85.60;;;;;;4167794;28;19936;-49
2023/07/24 12:40:22;;;;;;;;;;;22.20;84.80;;;;;;4154812;28;19936;-48
2023/07/24 12:43:03;;;;;;;;;;;22.20;84.70;;;;;;4165747;28;19939;-48
2023/07/24 12:45:45;;;;;;;;;;;22.20;84.80;;;;;;4168792;28;19993;-48
2023/07/24 12:48:26;;;;;;;;;;;22.20;84.70;;;;;;4168897;28;20025;-49
2023/07/24 12:51:07;;;;;;;;;;;22.20;84.60;;;;;;4153452;28;19932;-51
2023/07/24 12:53:48;;;;;;;;;;;22.20;84.60;;;;;;4159977;28;20296;-51
2023/07/24 12:56:30;;;;;;;;;;;22.20;84.50;;;;;;4168803;28;19998;-47
2023/07/24 12:59:11;;;;;;;;;;;22.20;84.30;;;;;;4153625;28;19952;-47
2023/07/24 13:01:54;;;;;;;;;;;22.20;84.40;;;;;;4168544;28;19936;-48
2023/07/24 13:04:35;;;;;;;;;;;22.20;84.60;;;;;;4166768;28;20096;-47
2023/07/24 13:07:15;;;;;;;;;;;22.20;84.60;;;;;;4167968;28;19932;-47
2023/07/24 13:09:56;;;;;;;;;;;22.10;84.60;;;;;;4153326;28;20277;-47
2023/07/24 13:12:37;;;;;;;;;;;22.10;85.50;;;;;;4167335;28;19931;-48
2023/07/24 13:15:18;;;;;;;;;;;22.10;84.60;;;;;;4166657;28;20280;-48
2023/07/24 13:17:59;;;;;;;;;;;22.00;84.80;;;;;;4177337;28;19967;-49
2023/07/24 13:20:50;;;;;;;;;;;22.00;84.90;;;;;;4154290;28;19940;-47
2023/07/24 13:23:31;;;;;;;;;;;22.00;85.10;;;;;;4164218;28;19993;-49
2023/07/24 13:26:12;;;;;;;;;;;22.00;85.20;;;;;;4168171;28;19950;-48
2023/07/24 13:28:54;;;;;;;;;;;22.00;85.30;;;;;;4167581;28;20063;-48
2023/07/24 13:31:35;;;;;;;;;;;22.00;85.50;;;;;;4168230;28;19939;-50
2023/07/24 13:34:19;;;;;;;;;;;22.00;85.50;;;;;;4163228;28;20342;-50
2023/07/24 13:36:59;;;;;;;;;;;22.10;85.70;;;;;;4161361;28;19932;-50
2023/07/24 13:39:40;;;;;;;;;;;22.10;86.70;;;;;;4140536;28;20441;-50
2023/07/24 13:42:21;;;;;;;;;;;22.10;85.90;;;;;;4168149;28;19936;-51
2023/07/24 13:45:02;;;;;;;;;;;22.10;85.70;;;;;;4158480;28;19932;-51
2023/07/24 13:47:43;;;;;;;;;;;22.10;85.70;;;;;;4152254;28;19936;-51
2023/07/24 13:50:26;;;;;;;;;;;22.10;85.60;;;;;;4154489;28;19936;-53
2023/07/24 13:53:06;;;;;;;;;;;22.10;85.50;;;;;;4163560;28;19936;-52
2023/07/24 13:55:47;;;;;;;;;;;22.10;85.40;;;;;;4167054;28;19936;-52
2023/07/24 13:58:28;;;;;;;;;;;22.10;85.20;;;;;;4167186;28;19935;-47
2023/07/24 14:01:09;;;;;;;;;;;22.10;85.10;;;;;;4154736;28;19936;-57
2023/07/24 14:03:50;;;;;;;;;;;22.10;85.20;;;;;;4167306;28;19974;-48
2023/07/24 14:06:33;;;;;;;;;;;22.10;85.50;;;;;;4164872;28;19932;-48
2023/07/24 14:09:14;;;;;;;;;;;22.10;85.30;;;;;;4152563;28;19936;-50
2023/07/24 14:11:54;;;;;;;;;;;22.10;85.10;;;;;;4152592;28;19936;-48
2023/07/24 14:14:35;;;;;;;;;;;22.10;85.00;;;;;;4156667;28;19936;-48
2023/07/24 14:17:16;;;;;;;;;;;22.10;84.90;;;;;;4160855;28;19936;-48
2023/07/24 14:19:57;;;;;;;;;;;22.00;84.90;;;;;;4155485;28;19940;-47
2023/07/24 14:22:39;;;;;;;;;;;22.00;85.80;;;;;;4146956;28;19936;-50
2023/07/24 14:25:20;;;;;;;;;;;22.00;85.00;;;;;;4173309;28;20283;-50
2023/07/24 14:28:01;;;;;;;;;;;22.00;85.00;;;;;;4173048;28;19936;-47
2023/07/24 14:30:41;;;;;;;;;;;21.90;84.70;;;;;;4155668;28;20492;-49
2023/07/24 14:33:23;;;;;;;;;;;21.90;84.60;;;;;;4173256;28;20055;-47
2023/07/24 14:36:03;;;;;;;;;;;21.90;84.70;;;;;;4171215;28;19977;-49
2023/07/24 14:38:46;;;;;;;;;;;21.90;84.80;;;;;;4156654;28;19932;-48
2023/07/24 14:41:27;;;;;;;;;;;21.90;84.70;;;;;;4165604;28;19932;-50
2023/07/24 14:44:08;;;;;;;;;;;21.80;84.50;;;;;;4172990;28;19932;-50
2023/07/24 14:46:49;;;;;;;;;;;21.90;84.80;;;;;;4157303;28;19952;-49
2023/07/24 14:49:29;;;;;;;;;;;21.80;84.90;;;;;;4172802;28;20013;-48
2023/07/24 14:52:10;;;;;;;;;;;21.80;85.00;;;;;;4172645;28;19947;-48
2023/07/24 14:54:52;;;;;;;;;;;21.80;85.00;;;;;;4172630;28;19939;-48
2023/07/24 14:57:33;;;;;;;;;;;21.80;86.00;;;;;;4172999;28;20318;-47
2023/07/24 15:00:16;;;;;;;;;;;21.80;84.90;;;;;;4172727;28;19935;-47
2023/07/24 15:02:57;;;;;;;;;;;21.80;84.40;;;;;;4173137;28;19935;-48
2023/07/24 15:05:37;;;;;;;;;;;21.80;84.70;;;;;;4172339;28;19948;-49
2023/07/24 15:08:18;;;;;;;;;;;21.80;83.90;;;;;;4160164;28;20391;-47
2023/07/24 15:11:00;;;;;;;;;;;21.80;83.90;;;;;;4189546;28;19935;-47
2023/07/24 15:13:41;;;;;;;;;;;21.80;83.10;;;;;;4188282;28;20386;-48
2023/07/24 15:16:22;;;;;;;;;;;21.80;83.30;;;;;;4188314;28;20046;-50
2023/07/24 15:19:03;;;;;;;;;;;21.80;83.40;;;;;;4171965;28;19931;-51
2023/07/24 15:21:43;;;;;;;;;;;21.80;83.40;;;;;;4155803;28;19936;-51
2023/07/24 15:24:24;;;;;;;;;;;21.80;83.10;;;;;;4147556;28;19936;-53
2023/07/24 15:27:09;;;;;;;;;;;21.80;82.70;;;;;;4144645;28;19943;-49
2023/07/24 15:29:50;;;;;;;;;;;21.80;82.40;;;;;;4157424;28;19936;-52
2023/07/24 15:32:31;;;;;;;;;;;21.80;81.70;;;;;;4171128;28;19936;-47
2023/07/24 15:35:11;;;;;;;;;;;21.80;81.40;;;;;;4172187;28;19978;-47
2023/07/24 15:37:52;;;;;;;;;;;21.80;81.20;;;;;;4172045;28;20394;-48